createdAt,value
2019-05-26T00:00:31.896Z,81.94
2019-05-26T00:03:03.242Z,81.95
2019-05-26T00:05:34.349Z,81.98
2019-05-26T00:08:05.579Z,82.01
2019-05-26T00:10:36.835Z,82.02
2019-05-26T00:13:08.071Z,82.28
2019-05-26T00:15:39.218Z,82.34
2019-05-26T00:18:10.387Z,82.70
2019-05-26T00:20:41.641Z,82.83
2019-05-26T00:23:12.917Z,82.99
2019-05-26T00:25:44.219Z,83.08
2019-05-26T00:28:15.460Z,83.02
2019-05-26T00:30:46.608Z,83.21
2019-05-26T00:33:17.855Z,83.50
2019-05-26T00:35:49.092Z,83.42
2019-05-26T00:38:20.265Z,83.40
2019-05-26T00:40:51.522Z,83.42
2019-05-26T00:43:22.815Z,83.54
2019-05-26T00:45:54.049Z,83.65
2019-05-26T00:48:25.321Z,83.80
2019-05-26T00:50:56.664Z,83.85
2019-05-26T00:53:27.862Z,83.92
2019-05-26T00:55:59.099Z,83.91
2019-05-26T00:58:30.346Z,83.89
2019-05-26T01:01:01.595Z,83.70
2019-05-26T01:03:32.849Z,83.67
2019-05-26T01:06:04.126Z,83.57
2019-05-26T01:08:35.330Z,83.33
2019-05-26T01:11:06.649Z,83.23
2019-05-26T01:13:37.789Z,82.86
2019-05-26T01:16:08.951Z,82.87
2019-05-26T01:18:40.187Z,83.12
2019-05-26T01:21:11.407Z,83.23
2019-05-26T01:23:43.075Z,83.44
2019-05-26T01:26:14.226Z,83.49
2019-05-26T01:28:45.519Z,83.61
2019-05-26T01:31:16.811Z,83.72
2019-05-26T01:33:48.042Z,83.98
2019-05-26T01:36:19.782Z,84.08
2019-05-26T01:38:52.458Z,84.24
2019-05-26T01:41:23.784Z,84.10
2019-05-26T01:43:55.007Z,84.05
2019-05-26T01:46:26.151Z,84.12
2019-05-26T01:48:57.278Z,84.52
2019-05-26T01:51:28.508Z,84.67
2019-05-26T01:53:59.742Z,84.88
2019-05-26T01:56:30.979Z,84.92
2019-05-26T01:59:02.244Z,85.22
2019-05-26T02:01:33.472Z,85.18
2019-05-26T02:04:04.676Z,85.29
2019-05-26T02:06:35.907Z,85.40
2019-05-26T02:09:09.367Z,85.38
2019-05-26T02:11:40.571Z,85.48
2019-05-26T02:14:14.471Z,85.60
2019-05-26T02:16:44.764Z,85.66
2019-05-26T02:19:15.970Z,86.05
2019-05-26T02:21:47.385Z,86.28
2019-05-26T02:24:18.636Z,86.69
2019-05-26T02:26:49.897Z,86.72
2019-05-26T02:29:21.223Z,86.31
2019-05-26T02:31:52.480Z,86.38
2019-05-26T02:34:23.742Z,86.68
2019-05-26T02:36:55.043Z,86.80
2019-05-26T02:39:26.304Z,86.98
2019-05-26T02:41:57.553Z,86.81
2019-05-26T02:44:28.792Z,86.81
2019-05-26T02:47:00.023Z,86.74
2019-05-26T02:49:31.372Z,86.99
2019-05-26T02:52:02.675Z,87.16
2019-05-26T02:54:33.873Z,87.02
2019-05-26T02:57:05.254Z,87.16
2019-05-26T02:59:36.516Z,87.49
2019-05-26T03:02:07.977Z,87.49
2019-05-26T03:04:40.689Z,87.49
2019-05-26T03:07:14.184Z,87.59
2019-05-26T03:09:49.228Z,87.72
2019-05-26T03:12:24.258Z,87.64
2019-05-26T03:14:57.655Z,87.41
2019-05-26T03:17:35.313Z,87.72
2019-05-26T03:20:07.621Z,88.00
2019-05-26T03:22:44.201Z,87.88
2019-05-26T03:25:16.100Z,87.68
2019-05-26T03:27:47.450Z,87.61
2019-05-26T03:30:18.812Z,87.39
2019-05-26T03:32:52.807Z,87.50
2019-05-26T03:35:23.729Z,87.66
2019-05-26T03:37:54.934Z,87.88
2019-05-26T03:40:26.070Z,87.93
2019-05-26T03:42:57.290Z,87.77
2019-05-26T03:46:06.190Z,87.72
2019-05-26T03:48:37.449Z,87.68
2019-05-26T03:51:08.732Z,87.59
2019-05-26T03:53:39.977Z,87.21
2019-05-26T03:56:11.373Z,87.39
2019-05-26T03:58:42.639Z,87.01
2019-05-26T04:01:14.091Z,86.94
2019-05-26T04:03:45.281Z,86.85
2019-05-26T04:06:16.519Z,86.57
2019-05-26T04:08:47.790Z,86.18
2019-05-26T04:11:19.006Z,85.57
2019-05-26T04:13:50.307Z,84.64
2019-05-26T04:16:21.495Z,84.09
2019-05-26T04:18:52.770Z,83.61
2019-05-26T04:21:23.885Z,83.30
2019-05-26T04:23:55.186Z,82.14
2019-05-26T04:26:26.440Z,81.86
2019-05-26T04:28:57.668Z,81.63
2019-05-26T04:31:28.949Z,81.64
2019-05-26T04:34:00.168Z,81.65
2019-05-26T04:36:31.419Z,80.60
2019-05-26T04:39:02.644Z,80.00
2019-05-26T04:41:33.912Z,79.97
2019-05-26T04:44:05.308Z,79.21
2019-05-26T04:46:36.559Z,78.82
2019-05-26T04:49:07.811Z,77.97
2019-05-26T04:51:39.055Z,77.67
2019-05-26T04:54:10.318Z,76.52
2019-05-26T04:56:41.604Z,75.99
2019-05-26T04:59:12.858Z,75.50
2019-05-26T05:01:44.104Z,74.89
2019-05-26T05:04:15.396Z,74.16
2019-05-26T05:06:46.668Z,73.53
2019-05-26T05:09:17.895Z,72.85
2019-05-26T05:11:49.089Z,71.67
2019-05-26T05:14:20.287Z,71.39
2019-05-26T05:16:51.622Z,70.92
2019-05-26T05:19:22.822Z,71.52
2019-05-26T05:21:54.043Z,70.82
2019-05-26T05:24:25.424Z,71.45
2019-05-26T05:26:56.681Z,70.89
2019-05-26T05:29:27.923Z,71.21
2019-05-26T05:31:59.190Z,71.18
2019-05-26T05:34:30.504Z,70.19
2019-05-26T05:37:01.750Z,70.55
2019-05-26T05:39:33.027Z,69.96
2019-05-26T05:42:04.663Z,69.75
2019-05-26T05:44:35.989Z,70.66
2019-05-26T05:47:07.240Z,69.86
2019-05-26T05:49:38.472Z,69.67
2019-05-26T05:52:09.786Z,69.50
2019-05-26T05:54:41.104Z,69.63
2019-05-26T05:57:12.321Z,69.82
2019-05-26T05:59:43.646Z,69.26
2019-05-26T06:02:14.848Z,67.80
2019-05-26T06:04:46.022Z,66.43
2019-05-26T06:07:17.231Z,63.68
2019-05-26T06:09:48.543Z,62.43
2019-05-26T06:12:20.029Z,61.32
2019-05-26T06:14:51.308Z,59.08
2019-05-26T06:17:22.573Z,58.03
2019-05-26T06:19:54.404Z,56.23
2019-05-26T06:22:25.702Z,54.19
2019-05-26T06:24:56.992Z,52.60
2019-05-26T06:27:28.307Z,51.48
2019-05-26T06:30:00.274Z,51.12
2019-05-26T06:32:31.455Z,51.34
2019-05-26T06:35:04.083Z,50.54
2019-05-26T06:37:35.380Z,47.83
2019-05-26T06:40:07.529Z,48.25
2019-05-26T06:42:40.726Z,45.84
2019-05-26T06:45:12.765Z,44.33
2019-05-26T06:47:52.999Z,43.10
2019-05-26T06:50:24.265Z,44.63
2019-05-26T06:52:55.457Z,46.22
2019-05-26T06:55:26.802Z,46.15
2019-05-26T06:57:58.224Z,47.21
2019-05-26T07:00:29.462Z,47.03
2019-05-26T07:03:00.694Z,46.50
2019-05-26T07:05:32.001Z,46.98
2019-05-26T07:08:03.288Z,46.34
2019-05-26T07:10:34.544Z,46.20
2019-05-26T07:13:05.948Z,46.10
2019-05-26T07:15:37.209Z,45.83
2019-05-26T07:18:08.488Z,46.12
2019-05-26T07:20:40.257Z,45.51
2019-05-26T07:23:11.604Z,45.11
2019-05-26T07:25:42.726Z,44.01
2019-05-26T07:28:14.041Z,43.31
2019-05-26T07:30:45.272Z,41.39
2019-05-26T07:33:17.072Z,42.04
2019-05-26T07:35:49.922Z,42.25
2019-05-26T07:38:21.544Z,40.04
2019-05-26T07:40:52.841Z,39.39
2019-05-26T07:43:27.845Z,38.59
2019-05-26T07:45:57.111Z,39.93
2019-05-26T07:48:28.454Z,39.80
2019-05-26T07:50:59.688Z,43.65
2019-05-26T07:53:31.159Z,43.43
2019-05-26T07:56:02.411Z,45.42
2019-05-26T07:58:33.687Z,45.91
2019-05-26T08:01:05.479Z,46.99
2019-05-26T08:03:36.896Z,48.31
2019-05-26T08:06:08.232Z,47.74
2019-05-26T08:08:39.496Z,46.87
2019-05-26T08:11:10.857Z,48.98
2019-05-26T08:13:42.229Z,47.81
2019-05-26T08:16:13.600Z,46.15
2019-05-26T08:18:44.905Z,46.71
2019-05-26T08:21:16.255Z,45.78
2019-05-26T08:23:50.588Z,47.51
2019-05-26T08:26:28.688Z,47.21
2019-05-26T08:28:59.974Z,49.43
2019-05-26T08:31:31.433Z,48.89
2019-05-26T08:34:02.707Z,49.40
2019-05-26T08:36:51.371Z,49.44
2019-05-26T08:39:42.524Z,49.39
2019-05-26T08:42:26.358Z,48.66
2019-05-26T08:44:46.841Z,49.74
2019-05-26T08:47:18.136Z,48.45
2019-05-26T08:49:49.381Z,48.65
2019-05-26T08:52:22.425Z,47.81
2019-05-26T08:55:00.815Z,47.42
2019-05-26T08:57:40.284Z,48.05
2019-05-26T09:00:21.221Z,46.76
2019-05-26T09:03:03.227Z,47.83
2019-05-26T09:05:34.686Z,48.93
2019-05-26T09:08:08.092Z,49.32
2019-05-26T09:10:40.404Z,50.30
2019-05-26T09:13:11.637Z,50.28
2019-05-26T09:15:43.864Z,50.25
2019-05-26T09:18:15.051Z,50.94
2019-05-26T09:20:46.247Z,51.70
2019-05-26T09:23:17.546Z,51.22
2019-05-26T09:25:48.844Z,51.12
2019-05-26T09:28:20.234Z,52.26
2019-05-26T09:30:51.656Z,52.46
2019-05-26T09:33:23.100Z,51.45
2019-05-26T09:35:54.374Z,52.02
2019-05-26T09:38:25.634Z,51.48
2019-05-26T09:40:56.870Z,51.21
2019-05-26T09:43:28.112Z,50.72
2019-05-26T09:45:59.416Z,51.46
2019-05-26T09:48:30.682Z,50.73
2019-05-26T09:51:02.020Z,50.15
2019-05-26T09:53:33.258Z,49.17
2019-05-26T09:56:04.598Z,49.21
2019-05-26T09:58:35.847Z,48.77
2019-05-26T10:01:07.328Z,48.76
2019-05-26T10:03:38.657Z,48.96
2019-05-26T10:06:09.916Z,48.71
2019-05-26T10:08:41.220Z,46.95
2019-05-26T10:11:12.557Z,48.67
2019-05-26T10:13:43.827Z,47.44
2019-05-26T10:16:15.089Z,48.53
2019-05-26T10:18:52.222Z,46.82
2019-05-26T10:21:23.421Z,46.29
2019-05-26T10:23:54.769Z,45.02
2019-05-26T10:26:25.935Z,45.57
2019-05-26T10:29:00.426Z,45.39
2019-05-26T10:31:30.177Z,44.15
2019-05-26T10:34:01.449Z,42.78
2019-05-26T10:36:32.789Z,42.58
2019-05-26T10:39:04.315Z,42.27
2019-05-26T10:41:35.578Z,43.12
2019-05-26T10:44:06.953Z,43.67
2019-05-26T10:46:38.208Z,43.38
2019-05-26T10:49:09.469Z,43.83
2019-05-26T10:51:40.759Z,42.04
2019-05-26T10:54:12.009Z,42.43
2019-05-26T10:56:43.353Z,43.27
2019-05-26T10:59:14.552Z,42.49
2019-05-26T11:01:45.865Z,42.06
2019-05-26T11:04:17.128Z,41.79
2019-05-26T11:06:48.441Z,44.30
2019-05-26T11:09:19.737Z,43.43
2019-05-26T11:11:51.039Z,42.87
2019-05-26T11:14:22.299Z,42.23
2019-05-26T11:16:53.500Z,42.21
2019-05-26T11:19:24.721Z,42.67
2019-05-26T11:21:56.020Z,42.07
2019-05-26T11:24:27.301Z,42.78
2019-05-26T11:27:08.214Z,41.88
2019-05-26T11:29:31.739Z,43.19
2019-05-26T11:32:02.993Z,43.90
2019-05-26T11:34:34.189Z,42.25
2019-05-26T11:37:07.414Z,40.97
2019-05-26T11:39:38.738Z,42.59
2019-05-26T11:42:13.403Z,43.23
2019-05-26T11:44:42.955Z,43.24
2019-05-26T11:47:14.228Z,41.86
2019-05-26T11:49:45.521Z,42.64
2019-05-26T11:52:20.077Z,42.82
2019-05-26T11:54:49.816Z,43.07
2019-05-26T11:57:21.104Z,43.58
2019-05-26T11:59:52.349Z,43.82
2019-05-26T12:02:23.639Z,42.95
2019-05-26T12:04:54.980Z,44.26
2019-05-26T12:07:26.603Z,42.80
2019-05-26T12:09:57.856Z,43.62
2019-05-26T12:12:29.100Z,43.48
2019-05-26T12:15:00.303Z,43.48
2019-05-26T12:17:31.638Z,42.55
2019-05-26T12:20:05.394Z,42.84
2019-05-26T12:22:35.790Z,42.32
2019-05-26T12:25:09.042Z,43.04
2019-05-26T12:27:40.365Z,44.79
2019-05-26T12:30:15.569Z,45.01
2019-05-26T12:32:47.043Z,43.88
2019-05-26T12:35:18.909Z,44.98
2019-05-26T12:37:50.172Z,45.61
2019-05-26T12:40:21.632Z,44.95
2019-05-26T12:42:52.852Z,45.07
2019-05-26T12:45:24.324Z,44.78
2019-05-26T12:47:55.622Z,44.33
2019-05-26T12:51:02.435Z,45.87
2019-05-26T12:56:47.085Z,46.41
2019-05-26T12:59:18.306Z,45.18
2019-05-26T13:01:49.622Z,43.41
2019-05-26T13:04:20.931Z,44.37
2019-05-26T13:06:52.194Z,44.55
2019-05-26T13:09:33.461Z,44.92
2019-05-26T13:12:04.728Z,43.75
2019-05-26T13:14:35.988Z,43.41
2019-05-26T13:17:07.508Z,41.92
2019-05-26T13:19:38.717Z,41.00
2019-05-26T13:22:10.024Z,40.73
2019-05-26T13:24:43.545Z,41.75
2019-05-26T13:27:14.854Z,43.68
2019-05-26T13:29:46.049Z,43.98
2019-05-26T13:32:17.287Z,43.29
2019-05-26T13:34:48.568Z,44.33
2019-05-26T13:37:19.899Z,43.85
2019-05-26T13:39:51.195Z,43.99
2019-05-26T13:42:22.428Z,42.32
2019-05-26T13:44:53.640Z,41.50
2019-05-26T13:47:26.545Z,41.83
2019-05-26T13:49:58.158Z,43.84
2019-05-26T13:52:29.311Z,44.78
2019-05-26T13:55:00.496Z,45.71
2019-05-26T13:57:31.778Z,47.46
2019-05-26T14:00:03.183Z,46.13
2019-05-26T14:02:34.397Z,47.37
2019-05-26T14:05:08.964Z,46.34
2019-05-26T14:07:40.186Z,46.67
2019-05-26T14:10:12.148Z,46.44
2019-05-26T14:12:43.325Z,48.02
2019-05-26T14:15:14.784Z,48.50
2019-05-26T14:17:46.868Z,48.09
2019-05-26T14:20:22.498Z,48.52
2019-05-26T14:22:53.720Z,47.77
2019-05-26T14:25:24.948Z,47.34
2019-05-26T14:27:56.262Z,45.77
2019-05-26T14:30:27.552Z,46.22
2019-05-26T14:32:58.854Z,46.58
2019-05-26T14:35:30.096Z,45.62
2019-05-26T14:38:01.361Z,46.43
2019-05-26T14:40:32.805Z,45.34
2019-05-26T14:43:04.109Z,45.54
2019-05-26T14:45:35.333Z,45.45
2019-05-26T14:48:07.816Z,45.70
2019-05-26T14:50:40.899Z,45.17
2019-05-26T14:53:12.090Z,44.76
2019-05-26T14:55:43.267Z,44.34
2019-05-26T14:58:16.476Z,45.65
2019-05-26T15:00:47.384Z,45.82
2019-05-26T15:03:18.517Z,45.53
2019-05-26T15:06:03.190Z,47.33
2019-05-26T15:08:22.466Z,48.87
2019-05-26T15:10:53.722Z,47.78
2019-05-26T15:13:25.048Z,47.96
2019-05-26T15:16:09.277Z,46.83
2019-05-26T15:18:29.107Z,46.99
2019-05-26T15:21:00.604Z,45.70
2019-05-26T15:23:31.921Z,44.69
2019-05-26T15:26:05.273Z,44.60
2019-05-26T15:28:36.167Z,44.45
2019-05-26T15:31:10.095Z,45.30
2019-05-26T15:33:40.226Z,46.34
2019-05-26T15:36:11.467Z,45.67
2019-05-26T15:38:43.516Z,46.61
2019-05-26T15:41:14.869Z,46.87
2019-05-26T15:43:46.152Z,47.63
2019-05-26T15:46:25.165Z,48.49
2019-05-26T15:48:50.449Z,48.74
2019-05-26T15:51:21.734Z,48.41
2019-05-26T15:53:53.035Z,48.58
2019-05-26T15:56:24.220Z,49.00
2019-05-26T15:58:55.586Z,48.74
2019-05-26T16:01:26.993Z,48.72
2019-05-26T16:03:58.322Z,49.04
2019-05-26T16:06:29.586Z,47.64
2019-05-26T16:09:01.750Z,47.07
2019-05-26T16:11:33.018Z,46.86
2019-05-26T16:14:04.345Z,46.77
2019-05-26T16:16:41.133Z,47.12
2019-05-26T16:19:08.611Z,47.56
2019-05-26T16:21:39.821Z,49.04
2019-05-26T16:24:11.203Z,49.39
2019-05-26T16:26:42.474Z,49.12
2019-05-26T16:29:13.664Z,49.18
2019-05-26T16:31:44.871Z,49.17
2019-05-26T16:34:16.226Z,49.37
2019-05-26T16:36:47.468Z,48.99
2019-05-26T16:39:18.699Z,48.77
2019-05-26T16:41:49.931Z,48.48
2019-05-26T16:44:21.248Z,48.50
2019-05-26T16:46:56.410Z,48.21
2019-05-26T16:49:26.079Z,47.50
2019-05-26T16:51:57.446Z,48.01
2019-05-26T16:54:28.755Z,47.72
2019-05-26T16:57:00.134Z,46.72
2019-05-26T16:59:31.474Z,46.85
2019-05-26T17:02:02.773Z,47.93
2019-05-26T17:04:34.131Z,47.42
2019-05-26T17:07:05.464Z,47.35
2019-05-26T17:09:36.816Z,47.58
2019-05-26T17:12:08.083Z,47.68
2019-05-26T17:14:39.486Z,48.49
2019-05-26T17:17:15.015Z,48.69
2019-05-26T17:19:43.725Z,48.47
2019-05-26T17:22:15.044Z,48.16
2019-05-26T17:24:46.315Z,47.31
2019-05-26T17:27:17.823Z,47.33
2019-05-26T17:29:49.121Z,48.06
2019-05-26T17:32:20.371Z,48.65
2019-05-26T17:34:51.858Z,48.49
2019-05-26T17:37:23.380Z,49.10
2019-05-26T17:39:55.092Z,49.18
2019-05-26T17:42:26.319Z,49.64
2019-05-26T17:44:57.674Z,49.50
2019-05-26T17:47:30.742Z,48.72
2019-05-26T17:50:02.001Z,48.58
2019-05-26T17:52:33.326Z,48.97
2019-05-26T17:55:04.806Z,49.09
2019-05-26T17:57:37.230Z,49.36
2019-05-26T18:00:10.030Z,48.50
2019-05-26T18:02:41.320Z,48.31
2019-05-26T18:05:12.904Z,48.91
2019-05-26T18:07:44.225Z,48.04
2019-05-26T18:10:16.473Z,48.15
2019-05-26T18:12:47.749Z,48.64
2019-05-26T18:15:23.118Z,49.66
2019-05-26T18:17:54.334Z,49.94
2019-05-26T18:20:25.858Z,50.69
2019-05-26T18:22:57.244Z,51.52
2019-05-26T18:25:28.921Z,52.40
2019-05-26T18:28:01.542Z,52.29
2019-05-26T18:30:32.879Z,52.77
2019-05-26T18:33:06.923Z,53.21
2019-05-26T18:35:39.223Z,53.02
2019-05-26T18:38:11.094Z,53.37
2019-05-26T18:40:43.236Z,53.59
2019-05-26T18:43:14.676Z,54.43
2019-05-26T18:45:45.989Z,54.34
2019-05-26T18:48:17.295Z,54.53
2019-05-26T18:50:48.582Z,54.99
2019-05-26T18:53:19.941Z,54.74
2019-05-26T18:55:51.410Z,54.47
2019-05-26T18:58:22.761Z,54.85
2019-05-26T19:00:54.023Z,54.97
2019-05-26T19:03:26.074Z,55.27
2019-05-26T19:05:57.574Z,54.97
2019-05-26T19:08:29.080Z,55.23
2019-05-26T19:11:00.670Z,55.55
2019-05-26T19:13:32.046Z,56.09
2019-05-26T19:16:03.457Z,55.91
2019-05-26T19:18:34.793Z,55.37
2019-05-26T19:21:06.297Z,56.06
2019-05-26T19:23:37.607Z,55.76
2019-05-26T19:26:09.214Z,55.73
2019-05-26T19:28:40.666Z,55.94
2019-05-26T19:31:12.056Z,56.67
2019-05-26T19:33:43.463Z,56.84
2019-05-26T19:36:17.278Z,56.31
2019-05-26T19:38:48.528Z,55.79
2019-05-26T19:41:20.359Z,55.70
2019-05-26T19:43:51.822Z,54.64
2019-05-26T19:46:23.290Z,53.96
2019-05-26T19:48:54.710Z,53.94
2019-05-26T19:51:26.055Z,53.79
2019-05-26T19:53:57.356Z,53.74
2019-05-26T19:56:28.722Z,54.64
2019-05-26T19:59:00.088Z,53.51
2019-05-26T20:01:31.366Z,53.70
2019-05-26T20:04:02.856Z,52.94
2019-05-26T20:06:34.296Z,53.18
2019-05-26T20:09:07.766Z,52.99
2019-05-26T20:11:39.198Z,52.31
2019-05-26T20:14:10.535Z,52.44
2019-05-26T20:16:41.796Z,52.50
2019-05-26T20:19:13.145Z,52.52
2019-05-26T20:21:45.049Z,53.02
2019-05-26T20:24:16.564Z,52.62
2019-05-26T20:26:48.752Z,52.86
2019-05-26T20:29:19.987Z,52.60
2019-05-26T20:31:51.323Z,53.05
2019-05-26T20:34:22.766Z,53.37
2019-05-26T20:36:54.193Z,53.81
2019-05-26T20:39:25.636Z,53.69
2019-05-26T20:41:56.896Z,54.40
2019-05-26T20:44:29.976Z,55.12
2019-05-26T20:47:01.216Z,55.29
2019-05-26T20:49:44.839Z,55.32
2019-05-26T20:52:05.788Z,55.27
2019-05-26T20:54:40.021Z,55.77
2019-05-26T20:57:12.670Z,56.23
2019-05-26T20:59:45.493Z,56.67
2019-05-26T21:02:17.016Z,56.72
2019-05-26T21:04:48.421Z,57.12
2019-05-26T21:07:19.721Z,57.51
2019-05-26T21:09:50.965Z,58.77
2019-05-26T21:12:22.227Z,58.89
2019-05-26T21:14:53.529Z,59.52
2019-05-26T21:17:24.823Z,59.73
2019-05-26T21:19:56.429Z,60.08
2019-05-26T21:22:27.669Z,60.68
2019-05-26T21:24:58.971Z,60.50
2019-05-26T21:27:30.264Z,61.10
2019-05-26T21:30:01.478Z,61.72
2019-05-26T21:32:32.665Z,62.16
2019-05-26T21:35:03.990Z,62.28
2019-05-26T21:37:35.319Z,61.91
2019-05-26T21:40:08.388Z,62.15
2019-05-26T21:42:39.639Z,62.11
2019-05-26T21:45:11.481Z,62.01
2019-05-26T21:47:42.763Z,61.97
2019-05-26T21:50:15.605Z,62.44
2019-05-26T21:52:46.848Z,62.33
2019-05-26T21:55:18.423Z,62.38
2019-05-26T21:57:49.639Z,62.14
2019-05-26T22:00:25.234Z,62.30
2019-05-26T22:02:56.858Z,62.68
2019-05-26T22:05:28.140Z,62.57
2019-05-26T22:07:59.338Z,62.35
2019-05-26T22:10:30.560Z,62.96
2019-05-26T22:13:01.799Z,62.93
2019-05-26T22:15:33.079Z,62.79
2019-05-26T22:18:04.410Z,62.78
2019-05-26T22:20:35.572Z,62.55
2019-05-26T22:23:06.938Z,62.87
2019-05-26T22:25:38.200Z,62.98
2019-05-26T22:28:09.411Z,63.48
2019-05-26T22:30:40.651Z,63.36
2019-05-26T22:33:11.934Z,63.63
2019-05-26T22:35:43.177Z,63.71
2019-05-26T22:38:14.404Z,63.84
2019-05-26T22:40:46.655Z,63.95
2019-05-26T22:43:17.927Z,63.84
2019-05-26T22:45:49.155Z,64.42
2019-05-26T22:48:20.371Z,64.60
2019-05-26T22:50:51.647Z,64.83
2019-05-26T22:53:22.914Z,64.69
2019-05-26T22:55:54.092Z,64.86
2019-05-26T22:58:25.380Z,64.79
2019-05-26T23:00:56.625Z,65.02
2019-05-26T23:03:27.979Z,65.11
2019-05-26T23:05:59.251Z,65.00
2019-05-26T23:08:30.474Z,65.19
2019-05-26T23:11:01.720Z,65.34
2019-05-26T23:13:32.968Z,65.47
2019-05-26T23:16:04.280Z,65.29
2019-05-26T23:18:35.485Z,65.33
2019-05-26T23:21:06.742Z,65.27
2019-05-26T23:23:37.901Z,65.39
2019-05-26T23:26:09.248Z,65.43
2019-05-26T23:28:40.494Z,65.35
2019-05-26T23:31:11.850Z,65.68
2019-05-26T23:33:43.074Z,65.51
2019-05-26T23:36:14.227Z,66.05
2019-05-26T23:38:45.485Z,66.07
2019-05-26T23:41:16.747Z,66.72
2019-05-26T23:43:48.048Z,66.75
2019-05-26T23:46:19.274Z,66.80
2019-05-26T23:48:50.531Z,66.79
2019-05-26T23:51:21.759Z,67.19
2019-05-26T23:53:53.042Z,67.22
2019-05-26T23:56:24.291Z,67.51
2019-05-26T23:58:55.544Z,66.96
